Time;durP1;ratioP1;P1;durP2;ratioP2;P2;SDS_P1;SDS_P2;PMS_P1;PMS_P2;Temp;Humidity;BMP_temperature;BMP_pressure;BME280_temperature;BME280_humidity;BME280_pressure;Samples;Min_cycle;Max_cycle;Signal;HPM_P1;HPM_P2
2023/03/25 00:01:40;;;;;;;18.20;3.63;;;9.90;99.90;;;;;;4975642;28;20074;-65
2023/03/25 00:04:07;;;;;;;15.68;3.88;;;9.90;99.90;;;;;;4974911;28;20402;-64
2023/03/25 00:06:34;;;;;;;12.75;3.13;;;9.90;99.90;;;;;;4992645;28;20051;-66
2023/03/25 00:09:04;;;;;;;20.90;4.30;;;9.90;99.90;;;;;;4975564;28;20482;-64
2023/03/25 00:11:30;;;;;;;9.48;2.85;;;9.90;99.90;;;;;;4974789;28;20445;-66
2023/03/25 00:13:57;;;;;;;10.98;3.33;;;9.90;99.90;;;;;;4992290;28;20054;-66
2023/03/25 00:16:24;;;;;;;16.05;3.50;;;9.90;99.90;;;;;;4975760;28;20054;-64
2023/03/25 00:18:51;;;;;;;15.77;3.15;;;9.90;99.90;;;;;;4974816;28;20354;-66
2023/03/25 00:21:18;;;;;;;17.85;3.05;;;9.90;99.90;;;;;;4975582;28;20046;-65
2023/03/25 00:23:45;;;;;;;20.00;3.78;;;9.80;99.90;;;;;;4992135;28;20046;-66
2023/03/25 00:26:13;;;;;;;14.57;4.30;;;9.80;99.90;;;;;;4991477;28;20053;-65
2023/03/25 00:28:40;;;;;;;17.20;4.28;;;9.80;99.90;;;;;;4975078;28;20096;-65
2023/03/25 00:31:11;;;;;;;15.70;3.75;;;9.70;99.90;;;;;;4974611;28;20108;-64
2023/03/25 00:33:40;;;;;;;13.25;2.70;;;9.70;99.90;;;;;;4975380;28;20437;-65
2023/03/25 00:36:08;;;;;;;17.15;3.35;;;9.60;99.90;;;;;;4974979;28;20109;-65
2023/03/25 00:38:36;;;;;;;16.63;4.18;;;9.50;99.90;;;;;;4973980;28;20060;-65
2023/03/25 00:41:13;;;;;;;16.38;4.05;;;9.50;99.90;;;;;;4975251;28;20062;-66
2023/03/25 00:43:40;;;;;;;14.10;3.40;;;9.50;99.90;;;;;;4990592;28;20101;-66
2023/03/25 00:46:07;;;;;;;14.93;3.53;;;9.50;99.90;;;;;;4974631;28;20478;-65
2023/03/25 00:48:34;;;;;;;15.20;3.22;;;9.40;99.90;;;;;;4975546;28;20054;-65
2023/03/25 00:51:06;;;;;;;10.07;3.00;;;9.50;99.90;;;;;;4975060;28;20050;-65
2023/03/25 00:53:33;;;;;;;10.38;3.20;;;9.50;99.90;;;;;;4997118;28;20397;-65
2023/03/25 00:56:01;;;;;;;14.02;3.22;;;9.50;99.90;;;;;;5014068;28;20141;-64
2023/03/25 00:58:29;;;;;;;17.80;3.60;;;9.40;99.90;;;;;;4997223;28;20085;-65
2023/03/25 01:00:56;;;;;;;17.70;4.20;;;9.40;99.90;;;;;;5013749;28;20464;-65
2023/03/25 01:03:24;;;;;;;17.55;3.75;;;9.40;99.90;;;;;;5014291;28;20052;-65
2023/03/25 01:05:53;;;;;;;11.68;3.63;;;9.30;99.90;;;;;;4997132;28;20045;-64
2023/03/25 01:08:24;;;;;;;16.60;3.40;;;9.30;99.90;;;;;;5013605;28;20053;-64
2023/03/25 01:10:52;;;;;;;13.45;3.65;;;9.30;99.90;;;;;;4997069;28;20088;-67
2023/03/25 01:13:20;;;;;;;18.55;4.00;;;9.10;99.90;;;;;;5012725;28;20132;-66
2023/03/25 01:15:48;;;;;;;15.23;4.47;;;9.10;99.90;;;;;;5014616;28;20050;-64
2023/03/25 01:18:15;;;;;;;16.75;3.92;;;9.10;99.90;;;;;;4996949;28;20050;-64
2023/03/25 01:20:43;;;;;;;14.13;3.60;;;9.10;99.90;;;;;;5013416;28;20050;-66
2023/03/25 01:23:10;;;;;;;23.50;4.68;;;9.00;99.90;;;;;;5013804;28;20140;-66
2023/03/25 01:25:37;;;;;;;22.20;4.85;;;9.00;99.90;;;;;;5013502;28;20588;-65
2023/03/25 01:28:05;;;;;;;19.67;4.38;;;9.00;99.90;;;;;;4996036;28;20049;-65
2023/03/25 01:30:32;;;;;;;19.52;3.55;;;9.10;99.90;;;;;;4996727;28;20058;-64
2023/03/25 01:33:00;;;;;;;23.08;4.43;;;9.10;99.90;;;;;;4977976;28;20054;-65
2023/03/25 01:35:27;;;;;;;15.30;4.10;;;9.00;99.90;;;;;;4977481;28;20050;-65
2023/03/25 01:37:54;;;;;;;20.83;3.83;;;9.00;99.90;;;;;;4995113;28;20564;-65
2023/03/25 01:40:23;;;;;;;13.85;4.30;;;9.00;99.90;;;;;;4978199;28;20073;-64
2023/03/25 01:42:50;;;;;;;21.83;4.78;;;9.00;99.90;;;;;;4977324;28;20092;-64
2023/03/25 01:45:23;;;;;;;19.67;4.55;;;9.00;99.90;;;;;;4994732;28;20089;-63
2023/03/25 01:47:57;;;;;;;22.98;4.35;;;9.00;99.90;;;;;;4978121;28;20050;-65
2023/03/25 01:50:27;;;;;;;23.05;4.70;;;8.90;99.90;;;;;;4977208;28;20133;-64
2023/03/25 01:52:56;;;;;;;19.08;4.20;;;8.90;99.90;;;;;;5012960;28;20096;-64
2023/03/25 01:55:26;;;;;;;24.00;4.35;;;8.90;99.90;;;;;;4995771;28;20113;-65
2023/03/25 01:57:55;;;;;;;25.38;5.25;;;8.90;99.90;;;;;;4996449;28;20049;-65
2023/03/25 02:00:25;;;;;;;18.10;3.55;;;8.80;99.90;;;;;;4996092;28;20049;-65
2023/03/25 02:02:57;;;;;;;19.08;4.97;;;8.80;99.90;;;;;;4995043;28;20049;-66
2023/03/25 02:05:34;;;;;;;24.88;4.30;;;8.70;99.90;;;;;;5013177;28;20099;-65
2023/03/25 02:08:04;;;;;;;19.95;4.55;;;8.70;99.90;;;;;;5013311;28;20049;-67
2023/03/25 02:10:33;;;;;;;21.47;5.47;;;8.80;99.90;;;;;;5013363;28;20046;-65
2023/03/25 02:13:01;;;;;;;18.50;4.53;;;8.70;99.90;;;;;;4996118;28;20137;-66
2023/03/25 02:15:35;;;;;;;23.90;4.90;;;8.80;99.90;;;;;;4991764;28;20069;-65
2023/03/25 02:18:22;;;;;;;18.25;4.85;;;8.70;99.90;;;;;;4977424;28;20046;-65
2023/03/25 02:21:35;;;;;;;25.23;5.78;;;8.70;99.90;;;;;;4994249;28;20062;-65
2023/03/25 02:24:42;;;;;;;22.48;5.32;;;8.80;99.90;;;;;;4976845;28;20081;-65
2023/03/25 02:27:26;;;;;;;15.35;4.82;;;8.80;99.90;;;;;;4994081;28;20046;-65
2023/03/25 02:30:26;;;;;;;23.23;5.43;;;8.80;99.90;;;;;;4995496;28;20509;-65
2023/03/25 02:33:21;;;;;;;26.48;5.47;;;8.80;99.90;;;;;;5011731;28;20525;-65
2023/03/25 02:36:23;;;;;;;21.45;5.30;;;8.90;99.90;;;;;;4977765;28;20473;-65
2023/03/25 02:38:56;;;;;;;21.92;4.93;;;8.90;99.90;;;;;;4992612;28;20173;-65
2023/03/25 02:41:29;;;;;;;21.65;5.70;;;8.90;99.90;;;;;;4977031;28;20061;-64
2023/03/25 02:44:02;;;;;;;23.00;5.15;;;8.90;99.90;;;;;;4994078;28;20050;-65
2023/03/25 02:46:32;;;;;;;30.92;6.13;;;8.90;99.90;;;;;;4993443;28;20050;-65
2023/03/25 02:49:03;;;;;;;34.30;5.95;;;8.90;99.90;;;;;;4975244;28;20463;-66
2023/03/25 02:51:34;;;;;;;21.75;5.30;;;8.90;99.90;;;;;;4993601;28;20089;-66
2023/03/25 02:54:07;;;;;;;25.88;5.50;;;8.90;99.90;;;;;;4975844;28;20498;-66
2023/03/25 02:56:36;;;;;;;21.92;4.38;;;9.00;99.90;;;;;;4976501;28;20054;-65
2023/03/25 02:59:04;;;;;;;21.15;5.05;;;9.00;99.90;;;;;;4990804;28;20051;-65
2023/03/25 03:01:33;;;;;;;15.70;4.30;;;9.00;99.90;;;;;;4993213;28;20445;-65
2023/03/25 03:04:00;;;;;;;23.52;5.95;;;9.00;99.90;;;;;;4993372;28;20053;-64
2023/03/25 03:06:28;;;;;;;24.80;5.22;;;9.00;99.90;;;;;;4992942;28;20062;-65
2023/03/25 03:09:13;;;;;;;25.17;5.50;;;9.00;99.90;;;;;;4993721;28;20073;-64
2023/03/25 03:11:51;;;;;;;17.23;4.40;;;9.00;99.90;;;;;;4976532;28;20053;-65
2023/03/25 03:14:33;;;;;;;21.27;4.75;;;9.00;99.90;;;;;;4975868;28;20140;-65
2023/03/25 03:17:07;;;;;;;16.27;4.22;;;9.00;99.90;;;;;;4991535;28;20046;-64
2023/03/25 03:19:40;;;;;;;18.85;5.30;;;8.90;99.90;;;;;;4976437;28;20058;-65
2023/03/25 03:22:19;;;;;;;18.85;4.28;;;9.00;99.90;;;;;;4975531;28;20057;-65
2023/03/25 03:24:50;;;;;;;20.73;4.40;;;9.00;99.90;;;;;;4993602;28;20038;-65
2023/03/25 03:27:24;;;;;;;27.55;5.40;;;9.00;99.90;;;;;;4975371;28;20049;-65
2023/03/25 03:29:56;;;;;;;18.98;4.38;;;9.10;99.90;;;;;;4993140;28;20046;-65
2023/03/25 03:32:28;;;;;;;18.75;5.30;;;9.00;99.90;;;;;;4993097;28;20046;-65
2023/03/25 03:35:00;;;;;;;16.60;4.10;;;9.10;99.90;;;;;;4975667;28;20057;-65
2023/03/25 03:37:33;;;;;;;21.63;5.00;;;9.00;99.90;;;;;;4993341;28;20047;-65
2023/03/25 03:40:04;;;;;;;21.63;4.97;;;9.00;99.90;;;;;;4976193;28;20053;-65
2023/03/25 03:42:34;;;;;;;;;;;9.00;99.90;;;;;;4992723;28;20042;-64
2023/03/25 03:45:05;;;;;;;19.63;4.40;;;9.00;99.90;;;;;;4992782;28;19921;-65
2023/03/25 03:47:39;;;;;;;20.15;4.70;;;9.00;99.90;;;;;;4976355;28;20405;-65
2023/03/25 03:50:09;;;;;;;16.80;4.72;;;9.00;99.90;;;;;;4975292;28;20093;-65
2023/03/25 03:52:39;;;;;;;15.15;3.50;;;9.00;99.90;;;;;;4991363;28;20129;-65
2023/03/25 03:55:13;;;;;;;22.67;4.32;;;9.00;99.90;;;;;;4993510;28;20054;-65
2023/03/25 03:57:45;;;;;;;19.15;5.32;;;9.00;99.90;;;;;;5011425;28;20053;-65
2023/03/25 04:00:17;;;;;;;16.50;4.35;;;9.00;99.90;;;;;;5011027;28;20054;-65
2023/03/25 04:02:49;;;;;;;23.02;5.20;;;9.00;99.90;;;;;;4993574;28;20497;-65
2023/03/25 04:05:18;;;;;;;25.40;5.63;;;9.00;99.90;;;;;;5010908;28;20108;-65
2023/03/25 04:07:53;;;;;;;21.48;4.78;;;8.90;99.90;;;;;;4975790;28;20486;-65
2023/03/25 04:10:28;;;;;;;19.88;4.70;;;8.90;99.90;;;;;;4974900;28;20101;-65
2023/03/25 04:12:56;;;;;;;21.17;4.28;;;8.90;99.90;;;;;;4975736;28;20046;-65
2023/03/25 04:15:23;;;;;;;17.05;5.20;;;8.90;99.90;;;;;;4992643;28;20058;-65
2023/03/25 04:17:50;;;;;;;13.05;3.92;;;8.80;99.90;;;;;;4975045;28;20515;-64
2023/03/25 04:20:22;;;;;;;18.73;4.65;;;8.80;99.90;;;;;;4992638;28;20094;-65
2023/03/25 04:22:50;;;;;;;14.32;3.83;;;8.80;99.90;;;;;;4976024;28;20466;-65
2023/03/25 04:25:20;;;;;;;16.98;4.82;;;8.80;99.90;;;;;;4974938;28;20489;-65
2023/03/25 04:27:57;;;;;;;18.00;5.22;;;8.90;99.90;;;;;;4997934;28;20054;-64
2023/03/25 04:30:25;;;;;;;20.67;4.90;;;8.90;99.90;;;;;;4996823;28;20092;-65
2023/03/25 04:32:52;;;;;;;26.10;4.68;;;8.90;99.90;;;;;;4998990;28;20446;-64
2023/03/25 04:35:20;;;;;;;13.73;4.03;;;8.90;99.90;;;;;;4981629;28;20046;-65
2023/03/25 04:37:47;;;;;;;21.48;6.13;;;8.90;99.90;;;;;;4998314;28;20061;-65
2023/03/25 04:40:17;;;;;;;31.50;5.55;;;8.90;99.90;;;;;;4989228;28;20144;-66
2023/03/25 04:42:45;;;;;;;24.83;5.50;;;8.90;99.90;;;;;;5000194;28;20046;-66
2023/03/25 04:45:15;;;;;;;26.38;5.22;;;8.90;99.90;;;;;;5016434;28;20041;-65
2023/03/25 04:47:45;;;;;;;19.10;4.18;;;8.90;99.90;;;;;;5016809;28;20050;-64
2023/03/25 04:50:20;;;;;;;20.10;4.65;;;8.80;99.90;;;;;;5000068;28;20062;-63
2023/03/25 04:52:48;;;;;;;21.33;4.20;;;8.90;99.90;;;;;;4999056;28;20054;-64
2023/03/25 04:55:16;;;;;;;22.85;5.43;;;8.90;99.90;;;;;;5016169;28;20050;-64
2023/03/25 04:57:45;;;;;;;25.73;5.10;;;8.80;99.90;;;;;;5016608;28;20531;-65
2023/03/25 05:00:16;;;;;;;19.10;4.78;;;8.80;99.90;;;;;;5015532;28;20092;-65
2023/03/25 05:02:44;;;;;;;13.18;4.63;;;8.80;99.90;;;;;;5016534;28;20464;-64
2023/03/25 05:05:17;;;;;;;19.02;5.30;;;8.80;99.90;;;;;;5012825;28;20046;-64
2023/03/25 05:07:46;;;;;;;20.08;4.00;;;8.90;99.90;;;;;;5016256;28;20125;-64
2023/03/25 05:10:13;;;;;;;22.08;5.18;;;9.00;99.90;;;;;;5016185;28;20058;-65
2023/03/25 05:12:40;;;;;;;18.48;5.32;;;8.90;99.90;;;;;;5015507;28;20053;-65
2023/03/25 05:15:10;;;;;;;20.13;4.63;;;8.90;99.90;;;;;;4999791;28;20045;-66
2023/03/25 05:17:38;;;;;;;20.20;4.60;;;8.90;99.90;;;;;;5015767;28;20042;-66
2023/03/25 05:20:07;;;;;;;22.90;5.85;;;8.90;99.90;;;;;;4998759;28;20054;-64
2023/03/25 05:22:36;;;;;;;22.95;5.05;;;8.90;99.90;;;;;;4998973;28;20121;-65
2023/03/25 05:25:05;;;;;;;21.95;4.65;;;9.00;99.90;;;;;;4999517;28;20082;-65
2023/03/25 05:27:32;;;;;;;21.10;5.53;;;8.90;99.90;;;;;;5014979;28;20516;-64
2023/03/25 05:29:59;;;;;;;27.52;5.72;;;9.00;99.90;;;;;;4993938;28;20057;-64
2023/03/25 05:32:32;;;;;;;21.63;4.72;;;8.90;99.90;;;;;;4998129;28;20050;-64
2023/03/25 05:35:01;;;;;;;21.08;5.07;;;9.00;99.90;;;;;;4980977;28;20065;-64
2023/03/25 05:37:28;;;;;;;21.35;5.00;;;8.90;99.90;;;;;;4980684;28;20050;-64
2023/03/25 05:39:56;;;;;;;23.90;5.68;;;9.00;99.90;;;;;;4994361;28;20096;-63
2023/03/25 05:42:23;;;;;;;23.10;5.90;;;9.00;99.90;;;;;;4994546;28;20497;-64
2023/03/25 05:44:50;;;;;;;18.58;4.53;;;9.00;99.90;;;;;;4978049;28;20046;-64
2023/03/25 05:47:20;;;;;;;17.17;3.97;;;9.00;99.90;;;;;;4995296;28;20105;-63
2023/03/25 05:49:47;;;;;;;28.80;5.65;;;8.90;99.90;;;;;;4977729;28;20056;-64
2023/03/25 05:52:16;;;;;;;19.85;5.28;;;8.90;99.90;;;;;;4995324;28;20053;-64
2023/03/25 05:54:44;;;;;;;22.48;5.55;;;9.00;99.90;;;;;;4977430;28;20109;-65
2023/03/25 05:57:12;;;;;;;21.80;4.95;;;9.00;99.90;;;;;;4969963;28;20065;-65
2023/03/25 05:59:39;;;;;;;22.30;5.38;;;9.00;99.90;;;;;;4997931;28;20049;-65
2023/03/25 06:02:07;;;;;;;20.42;4.93;;;9.00;99.90;;;;;;4991957;28;20482;-65
2023/03/25 06:04:36;;;;;;;17.88;5.30;;;9.00;99.90;;;;;;4976996;28;20050;-65
2023/03/25 06:07:12;;;;;;;21.63;5.72;;;9.00;99.90;;;;;;4975639;28;20569;-65
2023/03/25 06:09:44;;;;;;;22.27;5.18;;;8.90;99.90;;;;;;4992388;28;20533;-66
2023/03/25 06:12:13;;;;;;;22.23;5.32;;;9.00;99.90;;;;;;4975890;28;20520;-65
2023/03/25 06:14:41;;;;;;;22.17;6.10;;;9.00;99.90;;;;;;4992483;28;20065;-65
2023/03/25 06:17:10;;;;;;;18.08;5.35;;;9.00;99.90;;;;;;4993575;28;20494;-65
2023/03/25 06:19:38;;;;;;;18.23;5.15;;;9.00;99.90;;;;;;4975474;28;20142;-65
2023/03/25 06:22:08;;;;;;;16.00;4.15;;;9.10;99.90;;;;;;4993206;28;20078;-65
2023/03/25 06:24:35;;;;;;;18.80;5.32;;;9.10;99.90;;;;;;4990589;28;20071;-65
2023/03/25 06:27:05;;;;;;;21.70;5.28;;;9.10;99.90;;;;;;4976914;28;20138;-65
2023/03/25 06:29:33;;;;;;;22.77;4.75;;;9.10;99.90;;;;;;4974985;28;20421;-65
2023/03/25 06:32:00;;;;;;;16.95;5.15;;;9.10;99.90;;;;;;4976305;28;20127;-65
2023/03/25 06:34:26;;;;;;;16.73;4.30;;;9.00;99.90;;;;;;4992460;28;20050;-66
2023/03/25 06:36:53;;;;;;;11.13;4.93;;;8.90;99.90;;;;;;4992844;28;20509;-66
2023/03/25 06:39:21;;;;;;;15.30;4.90;;;8.70;99.90;;;;;;4994090;28;20046;-67
2023/03/25 06:41:48;;;;;;;17.00;4.63;;;8.60;99.90;;;;;;4996514;28;20133;-67
2023/03/25 06:44:16;;;;;;;23.95;4.57;;;8.50;99.90;;;;;;4975089;28;20042;-66
2023/03/25 06:46:44;;;;;;;25.35;5.60;;;8.40;99.90;;;;;;4992332;28;20065;-65
2023/03/25 06:49:11;;;;;;;25.30;5.47;;;8.40;99.90;;;;;;4974841;28;20057;-66
2023/03/25 06:51:38;;;;;;;17.17;4.72;;;8.40;99.90;;;;;;4975753;28;20058;-65
2023/03/25 06:54:05;;;;;;;25.85;6.35;;;8.40;99.90;;;;;;4974417;28;20061;-64
2023/03/25 06:56:32;;;;;;;20.25;4.82;;;8.50;99.90;;;;;;4975249;28;20434;-65
2023/03/25 06:58:59;;;;;;;17.55;4.32;;;8.60;99.90;;;;;;4993368;28;20054;-64
2023/03/25 07:01:28;;;;;;;23.35;4.63;;;8.60;99.90;;;;;;4989065;28;20137;-64
2023/03/25 07:03:55;;;;;;;19.25;4.75;;;8.70;99.90;;;;;;4975861;28;20046;-64
2023/03/25 07:06:23;;;;;;;21.95;4.93;;;8.70;99.90;;;;;;4973762;28;20046;-64
2023/03/25 07:08:50;;;;;;;24.02;5.03;;;8.80;99.90;;;;;;4975504;28;20058;-64
2023/03/25 07:11:21;;;;;;;21.50;4.30;;;8.90;99.90;;;;;;4992162;28;20545;-65
2023/03/25 07:13:48;;;;;;;22.85;5.20;;;9.00;99.90;;;;;;4993002;28;20485;-65
2023/03/25 07:16:15;;;;;;;24.55;4.18;;;9.20;99.90;;;;;;4991790;28;20042;-66
2023/03/25 07:18:43;;;;;;;16.45;3.97;;;9.30;99.90;;;;;;4975757;28;20474;-65
2023/03/25 07:21:10;;;;;;;20.02;4.57;;;9.40;99.90;;;;;;4993098;28;20545;-66
2023/03/25 07:23:37;;;;;;;13.95;3.92;;;9.40;99.90;;;;;;4997750;28;20053;-66
2023/03/25 07:26:04;;;;;;;11.38;3.63;;;9.30;99.90;;;;;;4991578;28;20057;-66
2023/03/25 07:28:31;;;;;;;12.52;3.28;;;9.10;99.90;;;;;;4975671;28;20066;-65
2023/03/25 07:30:58;;;;;;;16.00;3.75;;;9.10;99.90;;;;;;4991359;28;20047;-65
2023/03/25 07:33:25;;;;;;;18.67;3.67;;;9.00;99.90;;;;;;4974659;28;20055;-65
2023/03/25 07:35:54;;;;;;;14.52;3.75;;;8.90;99.90;;;;;;4991101;28;20478;-65
2023/03/25 07:38:21;;;;;;;14.57;4.05;;;8.90;99.90;;;;;;4992639;28;20525;-65
2023/03/25 07:40:48;;;;;;;20.33;5.18;;;8.80;99.90;;;;;;4990093;28;20125;-65
2023/03/25 07:43:15;;;;;;;19.52;3.72;;;8.80;99.90;;;;;;4993397;28;20060;-65
2023/03/25 07:45:42;;;;;;;17.95;4.68;;;8.80;99.90;;;;;;4992966;28;20042;-65
2023/03/25 07:48:13;;;;;;;13.10;3.30;;;8.80;99.90;;;;;;4990145;28;20088;-65
2023/03/25 07:50:40;;;;;;;8.77;3.35;;;8.70;99.90;;;;;;4974164;28;20050;-65
2023/03/25 07:53:09;;;;;;;13.32;3.58;;;8.60;99.90;;;;;;4973873;28;20338;-65
2023/03/25 07:55:37;;;;;;;10.73;3.13;;;8.50;99.90;;;;;;4987315;28;20117;-66
2023/03/25 07:58:04;;;;;;;12.73;3.30;;;8.50;99.90;;;;;;4970682;28;20046;-65
2023/03/25 08:00:31;;;;;;;13.07;3.30;;;8.50;99.90;;;;;;4974012;28;20907;-66
2023/03/25 08:02:58;;;;;;;13.88;3.67;;;8.60;99.90;;;;;;4991151;28;20053;-65
2023/03/25 08:05:26;;;;;;;15.80;3.53;;;8.70;99.90;;;;;;4974604;28;20375;-64
2023/03/25 08:07:54;;;;;;;13.27;3.15;;;8.70;99.90;;;;;;4975015;28;20053;-65
2023/03/25 08:10:22;;;;;;;14.15;3.55;;;8.70;99.90;;;;;;4974099;28;20058;-65
2023/03/25 08:12:52;;;;;;;15.32;3.60;;;8.70;99.90;;;;;;4974905;28;20109;-65
2023/03/25 08:15:19;;;;;;;15.77;3.05;;;8.80;99.90;;;;;;4977962;28;20049;-66
2023/03/25 08:17:46;;;;;;;10.70;2.80;;;8.80;99.90;;;;;;4961727;28;20398;-66
2023/03/25 08:20:14;;;;;;;10.85;2.58;;;8.80;99.90;;;;;;4960979;28;20114;-65
2023/03/25 08:22:43;;;;;;;12.73;2.70;;;8.70;99.90;;;;;;4972224;28;20050;-65
2023/03/25 08:25:11;;;;;;;15.65;3.35;;;8.70;99.90;;;;;;4982102;28;20088;-65
2023/03/25 08:27:39;;;;;;;12.15;3.13;;;8.80;99.90;;;;;;4991565;28;20050;-65
2023/03/25 08:30:09;;;;;;;19.17;3.63;;;8.80;99.90;;;;;;4983184;28;20101;-65
2023/03/25 08:32:37;;;;;;;14.67;3.23;;;8.90;99.90;;;;;;4962635;28;20066;-66
2023/03/25 08:35:05;;;;;;;15.27;3.53;;;8.90;99.90;;;;;;4978700;28;20046;-66
2023/03/25 08:37:34;;;;;;;14.23;3.03;;;9.00;99.90;;;;;;4983863;28;20050;-66
2023/03/25 08:40:01;;;;;;;14.45;3.22;;;9.00;99.90;;;;;;4985885;28;20052;-65
2023/03/25 08:42:28;;;;;;;20.27;3.65;;;9.10;99.90;;;;;;4964087;28;20116;-65
2023/03/25 08:44:56;;;;;;;11.25;3.50;;;9.10;99.90;;;;;;4986387;28;20065;-65
2023/03/25 08:47:23;;;;;;;15.15;3.58;;;9.00;99.90;;;;;;4961337;28;20054;-66
2023/03/25 08:49:50;;;;;;;14.48;3.55;;;9.00;99.90;;;;;;4989797;28;20050;-65
2023/03/25 08:52:17;;;;;;;17.98;3.47;;;8.80;99.90;;;;;;4965857;28;20050;-65
2023/03/25 08:54:44;;;;;;;16.45;4.05;;;8.80;99.90;;;;;;4984826;28;20414;-66
2023/03/25 08:57:11;;;;;;;13.90;4.50;;;8.80;99.90;;;;;;4975959;28;20050;-65
2023/03/25 08:59:38;;;;;;;14.65;3.35;;;8.90;99.90;;;;;;4970905;28;20054;-65
2023/03/25 09:02:07;;;;;;;16.60;3.75;;;9.00;99.90;;;;;;4988005;28;20053;-65
2023/03/25 09:04:34;;;;;;;17.02;3.80;;;9.10;99.90;;;;;;4991776;28;20046;-65
2023/03/25 09:07:01;;;;;;;12.18;3.50;;;9.50;99.90;;;;;;4987557;28;20046;-66
2023/03/25 09:09:28;;;;;;;16.23;3.50;;;9.70;99.90;;;;;;4998544;28;20046;-66
2023/03/25 09:11:55;;;;;;;16.75;4.03;;;9.80;99.90;;;;;;4988733;28;20482;-65
2023/03/25 09:14:22;;;;;;;13.40;3.55;;;10.20;99.90;;;;;;4991731;28;20058;-66
2023/03/25 09:16:49;;;;;;;12.48;2.60;;;11.30;99.90;;;;;;4993139;28;20525;-65
2023/03/25 09:19:18;;;;;;;13.52;3.30;;;12.80;99.90;;;;;;4976372;28;20057;-66
2023/03/25 09:21:45;;;;;;;13.25;3.65;;;13.30;99.90;;;;;;4997606;28;20050;-65
2023/03/25 09:24:12;;;;;;;13.43;3.58;;;13.10;99.90;;;;;;4979730;28;20133;-65
2023/03/25 09:26:39;;;;;;;13.05;3.30;;;13.00;99.90;;;;;;4990416;28;20057;-65
2023/03/25 09:29:06;;;;;;;13.25;3.38;;;12.90;99.90;;;;;;4994444;28;20062;-65
2023/03/25 09:31:34;;;;;;;11.57;3.70;;;12.40;99.90;;;;;;4990914;28;20046;-65
2023/03/25 09:34:01;;;;;;;14.43;3.10;;;12.10;99.90;;;;;;4975854;28;20143;-65
2023/03/25 09:36:30;;;;;;;9.75;3.38;;;11.70;99.90;;;;;;4974972;28;20042;-65
2023/03/25 09:38:57;;;;;;;11.00;2.97;;;11.70;99.90;;;;;;4991025;28;20051;-65
2023/03/25 09:41:41;;;;;;;10.57;3.17;;;11.80;99.90;;;;;;4989698;28;20050;-66
2023/03/25 09:44:17;;;;;;;14.20;3.10;;;11.60;99.90;;;;;;4990843;28;20108;-66
2023/03/25 09:46:44;;;;;;;12.43;2.78;;;11.30;99.90;;;;;;4976317;28;20042;-66
2023/03/25 09:49:16;;;;;;;20.17;4.55;;;11.10;99.90;;;;;;4978089;28;20521;-65
2023/03/25 09:51:46;;;;;;;13.82;3.63;;;11.30;99.90;;;;;;4976277;28;20540;-65
2023/03/25 09:54:21;;;;;;;16.10;3.30;;;11.40;99.90;;;;;;4993864;28;20046;-65
2023/03/25 09:56:49;;;;;;;10.55;3.08;;;11.60;99.90;;;;;;4978063;28;20054;-66
2023/03/25 09:59:19;;;;;;;14.93;2.63;;;11.60;99.90;;;;;;4993243;28;20572;-65
2023/03/25 10:01:57;;;;;;;11.02;2.72;;;11.80;99.90;;;;;;4994602;28;20050;-65
2023/03/25 10:04:49;;;;;;;13.55;4.32;;;11.60;99.90;;;;;;4977889;28;20097;-65
2023/03/25 10:07:36;;;;;;;14.50;3.90;;;11.20;99.90;;;;;;4994980;28;20046;-65
2023/03/25 10:10:13;;;;;;;11.77;3.13;;;11.00;99.90;;;;;;5011963;28;20398;-65
2023/03/25 10:12:47;;;;;;;11.73;3.13;;;10.90;99.90;;;;;;4975413;28;20054;-65
2023/03/25 10:15:23;;;;;;;14.15;3.20;;;10.80;99.90;;;;;;4992422;28;20050;-65
2023/03/25 10:18:04;;;;;;;15.85;3.88;;;10.80;99.90;;;;;;4978078;28;20096;-64
2023/03/25 10:20:43;;;;;;;12.40;3.17;;;10.80;99.90;;;;;;4977417;28;20497;-66
2023/03/25 10:23:21;;;;;;;15.45;3.70;;;10.70;99.90;;;;;;4994302;28;20058;-64
2023/03/25 10:25:54;;;;;;;13.30;3.33;;;10.60;99.90;;;;;;4977045;28;20482;-65
2023/03/25 10:28:27;;;;;;;9.93;3.58;;;10.50;99.90;;;;;;4994544;28;20485;-65
2023/03/25 10:30:54;;;;;;;16.83;3.28;;;10.70;99.90;;;;;;4994222;28;20046;-65
2023/03/25 10:33:30;;;;;;;8.32;2.80;;;10.90;99.90;;;;;;4977976;28;20081;-66
2023/03/25 10:35:59;;;;;;;9.60;3.35;;;11.20;99.90;;;;;;4977016;28;20102;-64
2023/03/25 10:38:32;;;;;;;17.42;3.17;;;11.10;99.90;;;;;;4993340;28;20122;-66
2023/03/25 10:41:14;;;;;;;14.88;3.70;;;11.10;99.90;;;;;;4977302;28;20482;-65
2023/03/25 10:43:42;;;;;;;10.65;3.00;;;11.10;99.90;;;;;;4995079;28;20108;-65
2023/03/25 10:46:18;;;;;;;14.88;2.88;;;11.10;99.90;;;;;;4995329;28;20065;-66
2023/03/25 10:48:46;;;;;;;10.18;3.50;;;11.00;99.90;;;;;;4995179;28;20112;-65
2023/03/25 10:51:17;;;;;;;12.02;3.22;;;10.90;99.90;;;;;;4994631;28;20054;-65
2023/03/25 10:53:51;;;;;;;17.58;3.47;;;11.00;99.90;;;;;;4992989;28;20497;-66
2023/03/25 10:56:23;;;;;;;15.45;3.05;;;10.80;99.90;;;;;;4975150;28;20050;-66
2023/03/25 10:58:53;;;;;;;12.88;3.63;;;10.80;99.90;;;;;;4976482;28;20522;-67
2023/03/25 11:01:28;;;;;;;16.95;4.13;;;10.80;99.90;;;;;;4993546;28;20050;-64
2023/03/25 11:03:55;;;;;;;13.77;4.05;;;11.00;99.90;;;;;;4992891;28;20046;-66
2023/03/25 11:06:28;;;;;;;11.93;3.38;;;11.20;99.90;;;;;;4985748;28;20046;-66
2023/03/25 11:09:17;;;;;;;17.08;4.07;;;11.40;99.90;;;;;;4972377;28;20050;-66
2023/03/25 11:11:44;;;;;;;17.38;3.83;;;11.60;99.90;;;;;;4991106;28;20065;-65
2023/03/25 11:14:12;;;;;;;11.13;2.75;;;11.70;99.90;;;;;;4975083;28;20054;-65
2023/03/25 11:16:42;;;;;;;15.95;4.00;;;11.70;99.90;;;;;;4974603;28;20582;-66
2023/03/25 11:19:18;;;;;;;11.48;3.97;;;11.70;99.90;;;;;;4991020;28;20116;-66
2023/03/25 11:21:48;;;;;;;10.88;3.53;;;11.70;99.90;;;;;;4992554;28;20097;-65
2023/03/25 11:24:19;;;;;;;10.77;2.92;;;11.70;99.90;;;;;;4973941;28;20046;-66
2023/03/25 11:26:47;;;;;;;;;;;11.80;99.90;;;;;;4973126;28;20043;-65
2023/03/25 11:29:17;;;;;;;11.30;3.00;;;11.90;99.90;;;;;;4973768;28;19976;-66
2023/03/25 11:31:44;;;;;;;12.02;2.75;;;12.10;99.90;;;;;;4992460;28;20564;-66
2023/03/25 11:34:18;;;;;;;12.55;3.22;;;12.30;99.90;;;;;;4976661;28;20399;-65
2023/03/25 11:36:51;;;;;;;11.60;2.45;;;12.30;99.90;;;;;;4972663;28;20101;-65
2023/03/25 11:39:27;;;;;;;8.55;2.45;;;12.00;99.90;;;;;;4984081;28;20378;-65
2023/03/25 11:41:54;;;;;;;8.60;2.90;;;11.70;99.90;;;;;;4992351;28;20737;-66
2023/03/25 11:44:24;;;;;;;9.00;2.88;;;11.70;99.90;;;;;;4992234;28;20058;-65
2023/03/25 11:46:54;;;;;;;13.77;2.97;;;11.80;99.90;;;;;;4973942;28;20057;-65
2023/03/25 11:49:24;;;;;;;9.65;2.75;;;12.00;99.90;;;;;;4991755;28;20425;-65
2023/03/25 11:51:58;;;;;;;9.73;2.53;;;12.20;99.90;;;;;;4974614;28;20050;-66
2023/03/25 11:54:27;;;;;;;10.55;2.63;;;12.30;99.90;;;;;;4991208;28;20050;-66
2023/03/25 11:56:56;;;;;;;10.15;2.72;;;12.50;99.90;;;;;;4987220;28;20038;-65
2023/03/25 11:59:25;;;;;;;16.45;3.45;;;12.60;99.90;;;;;;4981309;28;21071;-66
2023/03/25 12:02:02;;;;;;;14.95;3.97;;;12.60;99.90;;;;;;4992053;28;20109;-66
2023/03/25 12:04:30;;;;;;;9.48;3.17;;;12.60;99.90;;;;;;4988271;28;20085;-66
2023/03/25 12:06:59;;;;;;;9.73;2.50;;;12.60;99.90;;;;;;4993858;28;20099;-66
2023/03/25 12:09:31;;;;;;;9.90;2.40;;;12.90;99.90;;;;;;4990061;28;20062;-66
2023/03/25 12:12:24;;;;;;;15.43;3.30;;;12.80;99.90;;;;;;4986697;28;20050;-66
2023/03/25 12:15:03;;;;;;;9.93;2.70;;;12.80;99.90;;;;;;4984609;28;20104;-65
2023/03/25 12:17:44;;;;;;;7.93;2.45;;;13.30;99.90;;;;;;4991070;28;20054;-66
2023/03/25 12:20:23;;;;;;;11.13;2.40;;;13.40;99.90;;;;;;4973802;28;20587;-68
2023/03/25 12:23:01;;;;;;;11.25;3.13;;;13.00;99.90;;;;;;4991468;28;20120;-67
2023/03/25 12:25:46;;;;;;;10.60;2.95;;;12.90;99.90;;;;;;4973810;28;20050;-66
2023/03/25 12:28:32;;;;;;;11.18;2.17;;;12.90;99.90;;;;;;4989541;28;20095;-66
2023/03/25 12:31:10;;;;;;;12.45;2.75;;;13.80;99.90;;;;;;4972438;28;20053;-67
2023/03/25 12:33:50;;;;;;;8.27;2.58;;;13.80;99.90;;;;;;4975732;28;20092;-65
2023/03/25 12:36:32;;;;;;;8.85;2.28;;;14.30;99.90;;;;;;4973622;28;20042;-67
2023/03/25 12:39:16;;;;;;;8.27;2.97;;;14.70;99.90;;;;;;4969488;28;20050;-66
2023/03/25 12:41:49;;;;;;;11.73;2.72;;;14.40;99.90;;;;;;4982111;28;20104;-65
2023/03/25 12:44:31;;;;;;;6.88;2.30;;;13.70;99.90;;;;;;4975136;28;20150;-67
2023/03/25 12:47:11;;;;;;;8.18;2.20;;;13.20;99.90;;;;;;4971416;28;20038;-66
2023/03/25 12:50:11;;;;;;;7.85;2.45;;;13.00;99.90;;;;;;4998805;28;20053;-66
2023/03/25 12:52:49;;;;;;;10.55;2.75;;;12.70;99.90;;;;;;4976504;28;20093;-65
2023/03/25 12:55:33;;;;;;;10.70;3.55;;;12.30;99.90;;;;;;5003921;28;20046;-66
2023/03/25 12:58:16;;;;;;;10.32;2.80;;;12.10;99.90;;;;;;4991487;28;20050;-66
2023/03/25 13:00:51;;;;;;;15.35;3.25;;;11.90;99.90;;;;;;4977775;28;20082;-66
2023/03/25 13:03:41;;;;;;;17.05;3.67;;;11.90;99.90;;;;;;4977615;28;20423;-65
2023/03/25 13:06:17;;;;;;;17.05;3.03;;;11.20;99.90;;;;;;4993214;28;20050;-65